BAW22B EGLL-KBWI
Flight info
| Callsign | BAW22B |
|---|---|
| Flight time | N/A |
| Altitude | 38000 |
| Route | CPT L9 BUCGO DCT FELCA DCT OFSOX DCT SLANY DCT DIMUS DCT ABAGU DCT TIPUR DCT NEBIN/M083F390 NATB BUDAR/N0479F400 N436B ALLEX Q822 ENE Q480 BAF Q406 BWZ J6 LRP TRISH4 |
| Aircraft | B772/H-SDE2E3FGHIJ5LORVWXY/LB1D1 |
Departure
| Time | 2026-05-01 14:54 |
|---|---|
| Airport | London Heathrow Airport (EGLL) |
Arrival
| Time | N/A |
|---|---|
| Airport | Baltimore/Washington International Thurgood Marshall Airport (KBWI) |
| Time | Latitude | Longitude | Altitude | Speed | Heading |
|---|---|---|---|---|---|
| 2026-05-01 14:04 | 51.46982 | -0.47497 | 93 ft | 0 kts | 270° |
| 2026-05-01 14:40 | 51.46982 | -0.47466 | 91 ft | 4 kts | 270° |
| 2026-05-01 14:40 | 51.46982 | -0.47423 | 92 ft | 4 kts | 270° |
| 2026-05-01 14:40 | 51.46982 | -0.47388 | 92 ft | 4 kts | 257° |
| 2026-05-01 14:41 | 51.46994 | -0.47357 | 93 ft | 4 kts | 201° |
| 2026-05-01 14:41 | 51.47018 | -0.47351 | 91 ft | 4 kts | 180° |
| 2026-05-01 14:41 | 51.47037 | -0.47351 | 90 ft | 0 kts | 180° |
| 2026-05-01 14:44 | 51.46986 | -0.47351 | 92 ft | 13 kts | 179° |
| 2026-05-01 14:45 | 51.46880 | -0.47350 | 90 ft | 16 kts | 180° |
| 2026-05-01 14:45 | 51.46746 | -0.47207 | 92 ft | 14 kts | 89° |
| 2026-05-01 14:45 | 51.46746 | -0.47048 | 94 ft | 15 kts | 90° |
| 2026-05-01 14:46 | 51.46748 | -0.46871 | 94 ft | 16 kts | 89° |
| 2026-05-01 14:46 | 51.46749 | -0.46507 | 90 ft | 16 kts | 90° |
| 2026-05-01 14:46 | 51.46749 | -0.46324 | 90 ft | 16 kts | 90° |
| 2026-05-01 14:47 | 51.46748 | -0.46141 | 94 ft | 16 kts | 90° |
| 2026-05-01 14:47 | 51.46747 | -0.45952 | 94 ft | 19 kts | 90° |
| 2026-05-01 14:47 | 51.46746 | -0.45723 | 94 ft | 22 kts | 90° |
| 2026-05-01 14:48 | 51.46752 | -0.45201 | 91 ft | 24 kts | 90° |
| 2026-05-01 14:48 | 51.46752 | -0.44938 | 91 ft | 23 kts | 90° |
| 2026-05-01 14:48 | 51.46753 | -0.44417 | 92 ft | 18 kts | 89° |
| 2026-05-01 14:49 | 51.46754 | -0.44221 | 93 ft | 1 kts | 90° |
| 2026-05-01 14:49 | 51.46771 | -0.43986 | 93 ft | 19 kts | 83° |
| 2026-05-01 14:50 | 51.46676 | -0.43824 | 93 ft | 19 kts | 183° |
| 2026-05-01 14:50 | 51.46493 | -0.43885 | 93 ft | 0 kts | 268° |
| 2026-05-01 14:51 | 51.46493 | -0.43892 | 93 ft | 0 kts | 270° |
| 2026-05-01 14:53 | 51.46493 | -0.43894 | 94 ft | 4 kts | 270° |
| 2026-05-01 14:53 | 51.46492 | -0.44167 | 90 ft | 53 kts | 270° |
| 2026-05-01 14:53 | 51.46488 | -0.45121 | 92 ft | 117 kts | 269° |
| 2026-05-01 14:53 | 51.46481 | -0.46728 | 135 ft | 164 kts | 264° |
| 2026-05-01 14:54 | 51.46486 | -0.48549 | 813 ft | 162 kts | 265° |
| 2026-05-01 14:54 | 51.46473 | -0.50341 | 1535 ft | 165 kts | 265° |
| 2026-05-01 14:54 | 51.46450 | -0.52255 | 1877 ft | 182 kts | 264° |
| 2026-05-01 14:54 | 51.46422 | -0.54385 | 2099 ft | 201 kts | 264° |
| 2026-05-01 14:55 | 51.46386 | -0.56752 | 2209 ft | 226 kts | 265° |
| 2026-05-01 14:55 | 51.46355 | -0.59380 | 2487 ft | 242 kts | 264° |
| 2026-05-01 14:55 | 51.46314 | -0.62134 | 3003 ft | 250 kts | 262° |
| 2026-05-01 14:55 | 51.46015 | -0.64857 | 3553 ft | 253 kts | 252° |
| 2026-05-01 14:56 | 51.45619 | -0.67627 | 4320 ft | 252 kts | 256° |
| 2026-05-01 14:56 | 51.45433 | -0.70475 | 4857 ft | 262 kts | 265° |
| 2026-05-01 14:56 | 51.45391 | -0.73417 | 5462 ft | 266 kts | 266° |
| 2026-05-01 14:56 | 51.45373 | -0.76387 | 6164 ft | 266 kts | 265° |
| 2026-05-01 14:57 | 51.45357 | -0.79317 | 6769 ft | 269 kts | 266° |
| 2026-05-01 14:57 | 51.45301 | -0.85381 | 7902 ft | 275 kts | 265° |
| 2026-05-01 14:57 | 51.45293 | -0.88440 | 8439 ft | 277 kts | 270° |
| 2026-05-01 14:58 | 51.45583 | -0.91545 | 8924 ft | 285 kts | 277° |
| 2026-05-01 14:58 | 51.45992 | -0.94671 | 9478 ft | 288 kts | 277° |
| 2026-05-01 14:58 | 51.46390 | -0.97834 | 10051 ft | 291 kts | 276° |
| 2026-05-01 14:58 | 51.46772 | -1.01033 | 10531 ft | 295 kts | 276° |
| 2026-05-01 14:59 | 51.47157 | -1.04288 | 11056 ft | 300 kts | 276° |
| 2026-05-01 14:59 | 51.47551 | -1.07693 | 11218 ft | 322 kts | 276° |
| 2026-05-01 14:59 | 51.47972 | -1.11351 | 11390 ft | 344 kts | 276° |
| 2026-05-01 14:59 | 51.48417 | -1.15221 | 11730 ft | 360 kts | 276° |
| 2026-05-01 15:00 | 51.49923 | -1.23048 | 12837 ft | 386 kts | 304° |
| 2026-05-01 15:00 | 51.51817 | -1.26130 | 13612 ft | 391 kts | 316° |
| 2026-05-01 15:00 | 51.53867 | -1.29066 | 14267 ft | 399 kts | 315° |
| 2026-05-01 15:01 | 51.55911 | -1.32105 | 15064 ft | 402 kts | 314° |
| 2026-05-01 15:01 | 51.57960 | -1.35195 | 15884 ft | 405 kts | 314° |
| 2026-05-01 15:01 | 51.59920 | -1.38475 | 16688 ft | 407 kts | 307° |
| 2026-05-01 15:01 | 51.61628 | -1.42138 | 17441 ft | 410 kts | 300° |
| 2026-05-01 15:02 | 51.63069 | -1.46105 | 18229 ft | 413 kts | 294° |
| 2026-05-01 15:02 | 51.63949 | -1.48839 | 18655 ft | 417 kts | 294° |
| 2026-05-01 15:02 | 51.65743 | -1.54418 | 19572 ft | 423 kts | 294° |
| 2026-05-01 15:02 | 51.67118 | -1.58624 | 20312 ft | 426 kts | 294° |
| 2026-05-01 15:03 | 51.68509 | -1.62864 | 21027 ft | 430 kts | 293° |
| 2026-05-01 15:03 | 51.69711 | -1.67273 | 21715 ft | 431 kts | 285° |
| 2026-05-01 15:03 | 51.70548 | -1.71856 | 22399 ft | 432 kts | 279° |
| 2026-05-01 15:03 | 51.71063 | -1.76619 | 23074 ft | 432 kts | 272° |
| 2026-05-01 15:04 | 51.71364 | -1.81465 | 23742 ft | 436 kts | 272° |
| 2026-05-01 15:04 | 51.71684 | -1.86352 | 24279 ft | 441 kts | 272° |
| 2026-05-01 15:04 | 51.72027 | -1.91279 | 24838 ft | 444 kts | 272° |
| 2026-05-01 15:04 | 51.72380 | -1.96235 | 25413 ft | 446 kts | 272° |
| 2026-05-01 15:05 | 51.72736 | -2.01218 | 25996 ft | 448 kts | 272° |
| 2026-05-01 15:05 | 51.73091 | -2.06228 | 26476 ft | 452 kts | 272° |
| 2026-05-01 15:05 | 51.73444 | -2.11286 | 26931 ft | 456 kts | 272° |
| 2026-05-01 15:05 | 51.73797 | -2.16378 | 27382 ft | 459 kts | 272° |
| 2026-05-01 15:06 | 51.74153 | -2.21509 | 27840 ft | 462 kts | 272° |
| 2026-05-01 15:06 | 51.74511 | -2.26684 | 28291 ft | 465 kts | 272° |
| 2026-05-01 15:06 | 51.74870 | -2.31891 | 28741 ft | 468 kts | 272° |
| 2026-05-01 15:06 | 51.75229 | -2.37134 | 29155 ft | 471 kts | 272° |
| 2026-05-01 15:07 | 51.75587 | -2.42400 | 29553 ft | 474 kts | 272° |
| 2026-05-01 15:07 | 51.75946 | -2.47713 | 29941 ft | 477 kts | 272° |
| 2026-05-01 15:07 | 51.76303 | -2.53042 | 30285 ft | 479 kts | 272° |
| 2026-05-01 15:07 | 51.76643 | -2.58327 | 30563 ft | 481 kts | 272° |
| 2026-05-01 15:08 | 51.76976 | -2.63707 | 30862 ft | 482 kts | 272° |
| 2026-05-01 15:08 | 51.77317 | -2.69101 | 31149 ft | 484 kts | 272° |
| 2026-05-01 15:08 | 51.77665 | -2.74512 | 31431 ft | 485 kts | 272° |
| 2026-05-01 15:08 | 51.78015 | -2.79930 | 31735 ft | 485 kts | 272° |
| 2026-05-01 15:09 | 51.78362 | -2.85343 | 32061 ft | 484 kts | 272° |
| 2026-05-01 15:09 | 51.78704 | -2.90727 | 32464 ft | 481 kts | 272° |
| 2026-05-01 15:09 | 51.79043 | -2.96112 | 32847 ft | 480 kts | 272° |
| 2026-05-01 15:09 | 51.79376 | -3.01471 | 33199 ft | 479 kts | 272° |
| 2026-05-01 15:10 | 51.79705 | -3.06817 | 33563 ft | 478 kts | 272° |
| 2026-05-01 15:10 | 51.80354 | -3.17475 | 34271 ft | 475 kts | 271° |
| 2026-05-01 15:10 | 51.80674 | -3.22788 | 34560 ft | 475 kts | 271° |
| 2026-05-01 15:11 | 51.80991 | -3.28097 | 34846 ft | 475 kts | 271° |
| 2026-05-01 15:11 | 51.81619 | -3.38713 | 35459 ft | 473 kts | 271° |
| 2026-05-01 15:11 | 51.81926 | -3.43943 | 35729 ft | 474 kts | 271° |
| 2026-05-01 15:12 | 51.82234 | -3.49250 | 35947 ft | 475 kts | 271° |
| 2026-05-01 15:12 | 51.83186 | -3.59834 | 36520 ft | 477 kts | 277° |
| 2026-05-01 15:12 | 51.83879 | -3.65077 | 36780 ft | 477 kts | 278° |
| 2026-05-01 15:13 | 51.85974 | -3.80796 | 37525 ft | 476 kts | 277° |
| 2026-05-01 15:14 | 51.87324 | -3.91255 | 38032 ft | 475 kts | 277° |
| 2026-05-01 15:14 | 51.89322 | -4.07057 | 38178 ft | 478 kts | 277° |
| 2026-05-01 15:15 | 51.91938 | -4.27991 | 38180 ft | 472 kts | 277° |
| 2026-05-01 15:16 | 51.94500 | -4.48829 | 38178 ft | 473 kts | 276° |
| 2026-05-01 15:18 | 51.97670 | -4.75053 | 38178 ft | 475 kts | 276° |
| 2026-05-01 15:19 | 52.00169 | -4.96094 | 38187 ft | 476 kts | 276° |
| 2026-05-01 15:19 | 52.02016 | -5.11867 | 38170 ft | 476 kts | 276° |
| 2026-05-01 15:20 | 52.04443 | -5.27544 | 38180 ft | 480 kts | 284° |
| 2026-05-01 15:21 | 52.06590 | -5.37821 | 38169 ft | 480 kts | 284° |
| 2026-05-01 15:21 | 52.08706 | -5.48127 | 38173 ft | 480 kts | 283° |
| 2026-05-01 15:22 | 52.11810 | -5.63600 | 38172 ft | 480 kts | 283° |
| 2026-05-01 15:22 | 52.13854 | -5.73872 | 38168 ft | 480 kts | 283° |
| 2026-05-01 15:23 | 52.15903 | -5.84206 | 38166 ft | 480 kts | 283° |
| 2026-05-01 15:23 | 52.17964 | -5.94563 | 38168 ft | 481 kts | 283° |
| 2026-05-01 15:24 | 52.20029 | -6.04942 | 38164 ft | 481 kts | 283° |
| 2026-05-01 15:24 | 52.22081 | -6.15323 | 38155 ft | 481 kts | 283° |
| 2026-05-01 15:25 | 52.24123 | -6.25716 | 38154 ft | 481 kts | 283° |
| 2026-05-01 15:25 | 52.26152 | -6.36122 | 38148 ft | 481 kts | 283° |
| 2026-05-01 15:26 | 52.28169 | -6.46537 | 38165 ft | 481 kts | 283° |
| 2026-05-01 15:26 | 52.30177 | -6.56961 | 38148 ft | 481 kts | 283° |
| 2026-05-01 15:27 | 52.32177 | -6.67397 | 38145 ft | 481 kts | 283° |
| 2026-05-01 15:28 | 52.35148 | -6.83002 | 38149 ft | 481 kts | 283° |
| 2026-05-01 15:28 | 52.37124 | -6.93456 | 38147 ft | 481 kts | 283° |
| 2026-05-01 15:29 | 52.40075 | -7.09178 | 38157 ft | 482 kts | 283° |
| 2026-05-01 15:30 | 52.43986 | -7.30218 | 38138 ft | 483 kts | 283° |
| 2026-05-01 15:31 | 52.49777 | -7.61811 | 38109 ft | 484 kts | 283° |
| 2026-05-01 15:32 | 52.53622 | -7.83017 | 38095 ft | 485 kts | 282° |
| 2026-05-01 15:34 | 52.59324 | -8.14918 | 38092 ft | 485 kts | 282° |